Time;durP1;ratioP1;P1;durP2;ratioP2;P2;SDS_P1;SDS_P2;PMS_P1;PMS_P2;Temp;Humidity;BMP_temperature;BMP_pressure;BME280_temperature;BME280_humidity;BME280_pressure;Samples;Min_cycle;Max_cycle;Signal;HPM_P1;HPM_P2
2023/10/23 08:07:08;;;;;;;35.90;8.68;;;;;;;19.38;76.03;95072.19;5128248;27;20726;-71
2023/10/23 08:09:35;;;;;;;26.13;7.80;;;;;;;19.47;75.00;95078.66;5128252;27;20192;-70
2023/10/23 08:12:00;;;;;;;34.63;8.45;;;;;;;19.60;75.04;95078.22;5128014;27;20211;-71
2023/10/23 08:14:25;;;;;;;24.83;7.80;;;;;;;19.75;74.64;95080.13;5127957;27;20200;-70
2023/10/23 08:16:52;;;;;;;22.05;7.82;;;;;;;19.91;73.67;95089.78;5127829;27;20634;-70
2023/10/23 08:19:19;;;;;;;27.17;7.93;;;;;;;20.05;73.46;95087.44;5127191;27;20236;-70
2023/10/23 08:21:44;;;;;;;21.00;7.90;;;;;;;20.27;72.52;95082.66;5127490;27;20172;-70
2023/10/23 08:24:10;;;;;;;29.30;11.75;;;;;;;20.51;71.35;95083.78;5127630;27;20175;-69
2023/10/23 08:26:35;;;;;;;24.98;8.40;;;;;;;20.67;71.30;95081.91;5127359;28;20655;-70
2023/10/23 08:29:01;;;;;;;35.75;9.55;;;;;;;20.82;70.21;95089.94;5127326;27;20710;-70
2023/10/23 08:31:27;;;;;;;34.78;10.95;;;;;;;20.82;69.10;95065.06;5127465;27;20547;-70
2023/10/23 08:33:53;;;;;;;41.15;10.35;;;;;;;20.98;69.21;95083.50;5127267;27;20215;-70
2023/10/23 08:36:18;;;;;;;29.98;9.48;;;;;;;20.97;68.49;95087.25;5139587;27;20172;-69
2023/10/23 08:38:44;;;;;;;23.48;7.65;;;;;;;20.93;68.64;95088.06;5148076;27;20174;-69
2023/10/23 08:41:12;;;;;;;27.77;8.65;;;;;;;21.11;69.14;95076.75;5147699;27;20172;-69
2023/10/23 08:43:40;;;;;;;19.92;7.93;;;;;;;21.45;68.21;95080.44;5147834;27;20249;-71
2023/10/23 08:46:08;;;;;;;24.63;7.75;;;;;;;21.72;66.75;95080.09;5147762;27;20211;-70
2023/10/23 08:48:34;;;;;;;23.77;8.43;;;;;;;21.93;65.38;95077.31;5148443;27;20232;-70
2023/10/23 08:50:59;;;;;;;26.33;8.02;;;;;;;22.00;65.17;95059.88;5148085;27;20179;-70
2023/10/23 08:53:48;;;;;;;26.58;8.98;;;;;;;22.45;64.71;95079.44;5148182;27;20175;-70
2023/10/23 08:56:14;;;;;;;32.55;8.75;;;;;;;22.99;62.23;95078.50;5148114;27;20200;-70
2023/10/23 08:58:44;;;;;;;35.40;9.93;;;;;;;23.12;61.29;95073.25;5148125;27;20215;-70
2023/10/23 09:01:09;;;;;;;33.85;9.85;;;;;;;23.41;60.40;95070.53;5148295;27;20240;-70
2023/10/23 09:03:35;;;;;;;26.60;8.45;;;;;;;23.58;60.36;95076.28;5125913;28;20169;-70
2023/10/23 09:06:00;;;;;;;29.30;9.05;;;;;;;23.44;59.84;95061.13;5126963;28;20220;-70
2023/10/23 09:08:31;;;;;;;34.17;9.65;;;;;;;23.83;59.21;95074.38;5127091;27;20183;-70
2023/10/23 09:11:04;;;;;;;23.98;8.25;;;;;;;24.00;58.28;95070.09;5127337;27;20173;-70
2023/10/23 09:13:36;;;;;;;18.80;7.50;;;;;;;24.11;58.11;95068.09;5126890;27;20732;-70
2023/10/23 09:16:03;;;;;;;26.42;8.90;;;;;;;24.19;57.40;95075.50;5127160;28;20177;-70
2023/10/23 09:18:29;;;;;;;27.67;7.90;;;;;;;24.25;57.77;95066.28;5113303;28;20189;-70
2023/10/23 09:20:56;;;;;;;27.38;7.50;;;;;;;24.34;57.53;95063.75;5113364;28;20206;-70
2023/10/23 09:23:21;;;;;;;25.15;7.65;;;;;;;24.18;57.83;95065.03;5111277;28;20177;-70
2023/10/23 09:25:48;;;;;;;32.33;9.25;;;;;;;24.08;58.24;95057.91;5111925;28;20212;-70
2023/10/23 09:28:13;;;;;;;24.50;8.15;;;;;;;24.21;57.42;95057.22;5113178;28;20173;-70
2023/10/23 09:30:40;;;;;;;19.70;6.57;;;;;;;24.26;57.54;95067.88;5113098;28;20177;-70
2023/10/23 09:33:06;;;;;;;13.18;5.70;;;;;;;24.21;57.47;95062.59;5112931;28;20252;-70
2023/10/23 09:35:32;;;;;;;23.67;7.28;;;;;;;24.13;57.08;95057.81;5112936;27;20264;-70
2023/10/23 09:37:59;;;;;;;16.60;6.40;;;;;;;23.83;57.67;95044.78;5094713;28;20374;-70
2023/10/23 09:40:26;;;;;;;24.52;7.57;;;;;;;23.62;59.00;95052.31;5094737;28;20255;-70
2023/10/23 09:42:52;;;;;;;30.08;8.13;;;;;;;23.38;59.43;95044.22;5112988;28;20256;-70
2023/10/23 09:45:19;;;;;;;21.48;6.82;;;;;;;23.19;60.08;95049.53;5112146;28;20630;-70
2023/10/23 09:47:46;;;;;;;40.05;8.50;;;;;;;23.12;60.68;95042.91;5111966;28;20169;-70
2023/10/23 09:50:12;;;;;;;26.10;7.35;;;;;;;23.14;60.41;95032.69;5111943;28;20181;-70
2023/10/23 09:52:40;;;;;;;23.55;7.82;;;;;;;23.13;60.37;95036.44;5111441;28;20165;-70
2023/10/23 09:55:09;;;;;;;32.40;8.05;;;;;;;22.97;60.88;95027.75;5111473;28;20165;-70
2023/10/23 09:57:40;;;;;;;31.35;7.10;;;;;;;23.09;61.03;95030.06;5111207;28;20246;-70
2023/10/23 10:00:13;;;;;;;28.88;8.00;;;;;;;23.23;60.38;95031.78;5090532;28;20172;-71
2023/10/23 10:02:43;;;;;;;32.08;6.72;;;;;;;23.36;60.00;95016.84;5111371;28;20201;-70
2023/10/23 10:05:12;;;;;;;28.98;7.90;;;;;;;23.56;59.44;95013.94;5111158;27;20225;-71
2023/10/23 10:08:16;;;;;;;27.80;6.50;;;;;;;23.72;58.72;95016.41;5111598;28;20181;-70
2023/10/23 10:10:43;;;;;;;25.95;7.18;;;;;;;23.81;59.30;95018.19;5111817;28;20184;-70
2023/10/23 10:13:13;;;;;;;25.42;7.15;;;;;;;23.87;58.85;95014.31;5112027;28;20238;-70
2023/10/23 10:15:39;;;;;;;26.95;7.63;;;;;;;23.88;58.36;95004.38;5112036;28;20650;-70
2023/10/23 10:18:05;;;;;;;21.77;6.95;;;;;;;23.94;58.09;95005.91;5111826;28;20251;-71
2023/10/23 10:20:30;;;;;;;32.35;7.82;;;;;;;23.81;58.21;94996.66;5112063;28;20256;-70
2023/10/23 10:23:15;;;;;;;22.42;6.93;;;;;;;23.76;60.19;94996.75;5112076;28;20173;-69
2023/10/23 17:13:43;;;;;;;112.28;58.03;;;;;;;18.32;72.64;94974.44;5107071;27;20282;-69
2023/10/23 17:16:12;;;;;;;116.90;47.60;;;;;;;18.39;72.26;94966.22;5107243;28;20189;-70
2023/10/23 17:18:37;;;;;;;120.13;56.78;;;;;;;18.41;72.25;94972.13;5107350;28;20177;-70
2023/10/23 17:21:03;;;;;;;77.90;38.50;;;;;;;18.53;71.75;94983.38;5106980;28;20226;-70
2023/10/23 17:23:33;;;;;;;109.70;53.55;;;;;;;18.57;71.70;94978.38;5105982;28;20442;-70
2023/10/23 17:25:59;;;;;;;67.22;28.95;;;;;;;18.64;70.85;94978.94;5107114;28;20173;-70
2023/10/23 17:28:25;;;;;;;70.93;30.73;;;;;;;18.73;70.38;94983.53;5112789;28;20263;-70
2023/10/23 17:31:00;;;;;;;55.40;30.88;;;;;;;18.77;70.11;94989.16;5106306;28;20541;-70
2023/10/23 17:33:28;;;;;;;55.50;21.70;;;;;;;18.81;69.79;94990.25;5106357;28;20209;-71
2023/10/23 17:35:55;;;;;;;67.45;33.75;;;;;;;18.85;69.85;94994.03;5104535;28;20211;-71
2023/10/23 17:38:22;;;;;;;50.72;20.45;;;;;;;18.85;69.37;94996.69;5104759;28;20873;-70
2023/10/23 17:40:49;;;;;;;79.03;35.77;;;;;;;18.87;69.57;94988.41;5104734;28;20978;-70
2023/10/23 17:43:15;;;;;;;79.55;39.80;;;;;;;18.87;69.34;94997.22;5106217;28;20501;-70
2023/10/23 17:45:40;;;;;;;54.33;24.55;;;;;;;18.80;69.21;94984.09;5106917;28;20169;-70
2023/10/23 17:48:06;;;;;;;53.13;18.53;;;;;;;18.89;69.11;95002.28;5106197;28;20422;-70
2023/10/23 17:50:33;;;;;;;61.40;18.08;;;;;;;18.77;69.36;95005.94;5106545;28;20180;-70
2023/10/23 17:53:00;;;;;;;46.17;18.23;;;;;;;18.73;69.43;95017.41;5106318;28;20211;-70
2023/10/23 17:55:26;;;;;;;78.68;24.17;;;;;;;18.65;69.71;95015.22;5106684;28;20173;-71
2023/10/23 17:57:51;;;;;;;81.32;23.50;;;;;;;18.57;69.92;95005.03;5106607;28;20177;-71
2023/10/23 18:00:18;;;;;;;60.22;19.25;;;;;;;18.51;70.27;95008.72;5105334;28;20174;-71
2023/10/23 18:02:46;;;;;;;78.93;23.23;;;;;;;18.39;70.32;95000.88;5120818;28;20187;-71
2023/10/23 18:05:15;;;;;;;73.00;20.35;;;;;;;18.45;70.45;95016.66;5106626;28;20185;-71
2023/10/23 18:07:40;;;;;;;66.00;19.25;;;;;;;18.30;71.05;95021.06;5106360;28;20196;-69
2023/10/23 18:10:07;;;;;;;60.65;19.15;;;;;;;18.24;71.72;95014.91;5104860;28;20174;-70
2023/10/23 18:12:33;;;;;;;66.15;18.60;;;;;;;18.27;71.57;95025.03;5105994;28;20232;-70
2023/10/23 18:15:00;;;;;;;49.25;18.55;;;;;;;18.14;71.68;95006.81;5106181;28;20272;-70
2023/10/23 18:17:26;;;;;;;59.88;18.83;;;;;;;18.15;72.32;95019.09;5103868;28;20189;-70
2023/10/23 18:19:53;;;;;;;54.25;16.30;;;;;;;18.16;72.39;95022.56;5117694;28;20572;-69
2023/10/23 18:22:19;;;;;;;54.45;17.83;;;;;;;18.20;72.44;95023.66;5113819;27;20188;-70
2023/10/23 18:24:50;;;;;;;46.05;15.57;;;;;;;18.20;72.53;95031.66;5095098;28;20174;-70
2023/10/23 18:27:19;;;;;;;51.90;15.50;;;;;;;18.20;71.99;95026.31;5092071;28;20189;-70
2023/10/23 18:29:45;;;;;;;56.28;16.67;;;;;;;18.19;71.89;95022.84;5092080;28;20182;-70
2023/10/23 18:32:10;;;;;;;50.42;16.55;;;;;;;18.19;72.25;95022.03;5104353;28;20197;-70
2023/10/23 18:34:36;;;;;;;59.92;16.02;;;;;;;18.17;72.21;95011.63;5112397;28;20552;-70
2023/10/23 18:37:03;;;;;;;54.45;16.05;;;;;;;18.04;72.10;95006.72;5112158;28;20173;-70
2023/10/23 18:39:30;;;;;;;48.58;14.63;;;;;;;18.10;72.22;95017.16;5093220;28;20211;-69
2023/10/23 18:41:56;;;;;;;44.45;15.10;;;;;;;18.01;72.41;95023.22;5088770;28;20404;-70
2023/10/23 18:44:23;;;;;;;40.40;12.80;;;;;;;17.84;72.78;95027.84;5089743;28;20450;-69
2023/10/23 18:46:49;;;;;;;34.95;9.73;;;;;;;17.76;72.29;95023.78;5091547;28;20177;-70
2023/10/23 18:49:14;;;;;;;47.00;13.50;;;;;;;17.79;72.52;95031.28;5091655;28;20211;-70
2023/10/23 18:51:42;;;;;;;36.97;12.27;;;;;;;17.77;72.76;95030.72;5090624;28;20440;-70
2023/10/23 18:54:08;;;;;;;48.35;13.55;;;;;;;17.92;72.60;95030.06;5091875;28;20223;-70
2023/10/23 18:56:33;;;;;;;31.83;10.48;;;;;;;17.95;72.04;95018.91;5106815;28;20184;-71
2023/10/23 18:58:59;;;;;;;33.78;10.05;;;;;;;18.13;71.21;95033.72;5089765;28;20207;-70
2023/10/23 19:01:25;;;;;;;35.97;11.60;;;;;;;18.14;71.24;95036.13;5090056;28;20182;-70
2023/10/23 19:03:50;;;;;;;35.90;10.32;;;;;;;18.18;71.17;95036.41;5091680;28;20177;-70
2023/10/23 19:06:16;;;;;;;46.30;11.23;;;;;;;18.20;71.36;95032.44;5091120;28;20165;-70
2023/10/23 19:08:42;;;;;;;29.15;10.45;;;;;;;18.21;71.45;95033.25;5090674;28;20185;-71
2023/10/23 19:11:09;;;;;;;31.95;8.85;;;;;;;18.22;71.29;95038.34;5090807;28;20178;-70
2023/10/23 19:13:35;;;;;;;43.45;9.85;;;;;;;18.14;71.08;95028.16;5090504;28;20234;-70
2023/10/23 19:16:04;;;;;;;27.88;8.23;;;;;;;18.17;71.21;95038.28;5090602;28;20181;-69
2023/10/23 19:18:30;;;;;;;33.30;10.35;;;;;;;18.06;71.23;95026.75;5090703;28;20182;-70
2023/10/23 19:21:11;;;;;;;29.58;11.30;;;;;;;18.12;71.68;95034.78;5090632;28;20686;-70
2023/10/23 19:23:38;;;;;;;35.08;10.50;;;;;;;18.07;71.62;95027.56;5090704;28;20645;-70
2023/10/23 19:26:06;;;;;;;35.88;11.60;;;;;;;18.05;71.79;95043.78;5092106;28;20177;-70
2023/10/23 19:28:33;;;;;;;42.55;11.13;;;;;;;17.97;71.97;95048.75;5089579;28;20992;-70
2023/10/23 19:30:58;;;;;;;40.00;10.82;;;;;;;17.84;72.51;95033.97;5090410;28;20238;-70
2023/10/23 19:33:24;;;;;;;35.40;10.18;;;;;;;17.85;72.69;95046.25;5090452;28;20197;-69
2023/10/23 19:35:50;;;;;;;34.35;10.95;;;;;;;17.79;72.82;95051.78;5089180;28;20181;-69
2023/10/23 19:38:16;;;;;;;34.28;10.10;;;;;;;17.68;72.89;95038.34;5090224;28;20174;-71
2023/10/23 19:40:49;;;;;;;32.42;10.63;;;;;;;17.65;73.10;95043.34;5089624;28;20181;-70
2023/10/23 19:43:16;;;;;;;29.02;10.85;;;;;;;17.73;73.24;95050.91;5089347;28;20174;-70
2023/10/23 19:45:43;;;;;;;30.52;10.43;;;;;;;17.72;73.29;95057.31;5090010;28;20296;-70
2023/10/23 19:48:11;;;;;;;39.80;11.63;;;;;;;17.66;73.19;95047.63;5090457;28;20184;-69
2023/10/23 19:50:44;;;;;;;33.15;10.00;;;;;;;17.67;73.40;95052.72;5088689;28;20181;-69
2023/10/23 19:53:13;;;;;;;38.97;11.52;;;;;;;17.63;73.67;95043.63;5089651;28;20200;-70
2023/10/23 19:55:41;;;;;;;32.72;11.00;;;;;;;17.49;73.38;95023.72;5089937;28;20178;-70
2023/10/23 19:58:07;;;;;;;30.15;10.85;;;;;;;17.61;73.73;95042.22;5090561;28;20597;-70
2023/10/23 20:00:32;;;;;;;31.42;11.82;;;;;;;17.52;73.61;95036.53;5090328;28;20185;-71
2023/10/23 20:02:58;;;;;;;35.95;12.57;;;;;;;17.59;73.56;95053.13;5090562;28;20166;-72
2023/10/23 20:05:27;;;;;;;42.35;12.77;;;;;;;17.57;73.51;95043.78;5090566;28;20538;-70
2023/10/23 20:07:53;;;;;;;38.95;12.73;;;;;;;17.60;73.17;95049.41;5090355;28;20185;-70
2023/10/23 20:10:21;;;;;;;29.77;13.52;;;;;;;17.62;72.79;95049.19;5090463;28;20564;-70
2023/10/23 20:12:47;;;;;;;34.75;12.05;;;;;;;17.58;72.89;95048.84;5090092;28;20229;-69
2023/10/23 20:15:13;;;;;;;35.10;12.55;;;;;;;17.54;73.14;95045.09;5089007;28;20174;-69
2023/10/23 20:17:38;;;;;;;32.20;12.18;;;;;;;17.49;73.28;95033.56;5089856;28;20193;-70
2023/10/23 20:20:05;;;;;;;29.08;10.65;;;;;;;17.40;73.12;95038.53;5090179;28;20649;-70
2023/10/23 20:22:30;;;;;;;51.00;12.40;;;;;;;17.31;73.45;95034.69;5090124;28;20166;-69
2023/10/23 20:24:56;;;;;;;36.20;11.73;;;;;;;17.20;73.60;95027.66;5090032;28;20181;-70
2023/10/23 20:27:22;;;;;;;36.20;11.73;;;;;;;17.26;73.84;95046.09;5089660;28;20161;-70
2023/10/23 20:29:48;;;;;;;34.03;11.82;;;;;;;17.21;73.87;95045.22;5092327;28;20181;-69
2023/10/23 20:32:13;;;;;;;30.75;12.07;;;;;;;17.11;74.03;95035.25;5109253;28;20189;-70
2023/10/23 20:34:39;;;;;;;36.22;12.52;;;;;;;17.05;74.24;95035.41;5110238;28;20165;-70
2023/10/23 20:37:04;;;;;;;34.05;11.05;;;;;;;16.88;74.54;95022.16;5110246;28;20181;-70
2023/10/23 20:39:29;;;;;;;35.42;12.73;;;;;;;16.93;74.85;95046.19;5110101;28;20185;-70
2023/10/23 20:41:55;;;;;;;37.67;12.55;;;;;;;16.85;75.01;95035.97;5110001;28;20161;-69
2023/10/23 20:44:20;;;;;;;27.38;11.48;;;;;;;16.81;75.13;95029.53;5100691;28;20185;-69
2023/10/23 20:46:46;;;;;;;40.80;12.93;;;;;;;16.76;75.22;95027.59;5087966;28;20411;-69
2023/10/23 20:49:11;;;;;;;41.53;12.32;;;;;;;16.64;75.20;95016.25;5089560;28;20422;-70
2023/10/23 20:51:37;;;;;;;42.03;13.00;;;;;;;16.67;75.33;95039.72;5088821;28;20182;-70
2023/10/23 20:54:04;;;;;;;34.25;11.73;;;;;;;16.65;75.45;95035.69;5085034;28;20178;-69
2023/10/23 20:56:29;;;;;;;40.03;12.23;;;;;;;16.56;75.76;95032.59;5085483;28;20181;-69
2023/10/23 20:58:55;;;;;;;43.30;13.13;;;;;;;16.47;75.95;95042.03;5089481;28;20625;-69
2023/10/23 21:01:20;;;;;;;35.60;13.52;;;;;;;16.21;76.46;95019.56;5089661;28;20178;-70
2023/10/23 21:03:49;;;;;;;39.58;14.25;;;;;;;16.26;76.16;95034.78;5089588;28;20182;-70
2023/10/23 21:06:17;;;;;;;38.55;12.50;;;;;;;16.27;76.55;95042.50;5088186;28;20569;-71
2023/10/23 21:08:43;;;;;;;36.13;12.05;;;;;;;16.11;76.81;95024.69;5089200;28;20205;-70
2023/10/23 21:11:08;;;;;;;46.63;12.32;;;;;;;16.09;76.85;95029.44;5089535;28;20263;-70
2023/10/23 21:13:35;;;;;;;37.38;13.25;;;;;;;16.14;76.90;95042.81;5089168;28;20225;-70
2023/10/23 21:16:01;;;;;;;31.85;12.35;;;;;;;16.08;77.19;95047.25;5090047;28;20182;-70
2023/10/23 21:18:27;;;;;;;43.05;13.93;;;;;;;16.02;77.17;95042.06;5089584;28;20181;-69
2023/10/23 21:20:55;;;;;;;41.20;12.40;;;;;;;15.92;77.08;95031.28;5085515;28;20245;-69
2023/10/23 21:23:21;;;;;;;32.22;16.75;;;;;;;15.94;76.49;95035.31;5091293;28;20628;-70
2023/10/23 21:25:47;;;;;;;42.65;15.43;;;;;;;15.92;76.51;95037.38;5101639;28;20242;-69
2023/10/23 21:28:12;;;;;;;34.22;15.05;;;;;;;15.93;76.48;95052.28;5088424;28;20268;-69
2023/10/23 21:30:38;;;;;;;36.28;14.50;;;;;;;15.78;76.02;95033.44;5089150;28;20195;-70
2023/10/23 21:33:04;;;;;;;44.55;17.77;;;;;;;15.85;76.45;95048.16;5088523;28;20271;-70
2023/10/23 21:35:29;;;;;;;38.47;15.52;;;;;;;15.82;76.32;95053.97;5093704;28;20176;-69
2023/10/23 21:37:54;;;;;;;47.67;21.17;;;;;;;15.77;76.54;95048.56;5097493;28;20188;-70
2023/10/23 21:40:20;;;;;;;55.03;22.17;;;;;;;15.71;76.69;95057.47;5094558;28;20176;-70
2023/10/23 21:42:45;;;;;;;45.28;19.48;;;;;;;15.68;76.79;95049.97;5107403;28;20177;-70
2023/10/23 21:45:11;;;;;;;48.50;19.40;;;;;;;15.67;76.77;95050.22;5108692;28;20214;-70
2023/10/23 21:47:36;;;;;;;42.10;18.25;;;;;;;15.64;76.88;95048.84;5108810;28;20204;-70
2023/10/23 21:50:02;;;;;;;43.63;17.38;;;;;;;15.56;76.87;95049.25;5109393;28;20489;-71
2023/10/23 21:52:28;;;;;;;50.05;18.33;;;;;;;15.53;77.11;95044.38;5109035;28;20672;-70
2023/10/23 21:54:53;;;;;;;41.25;17.42;;;;;;;15.51;77.42;95045.63;5109341;28;20174;-70
2023/10/23 21:57:19;;;;;;;42.60;19.75;;;;;;;15.40;77.27;95036.66;5109261;28;20183;-70
2023/10/23 21:59:45;;;;;;;60.33;21.05;;;;;;;15.46;77.48;95043.69;5111821;28;20716;-70
2023/10/23 22:02:11;;;;;;;50.00;19.50;;;;;;;15.43;77.58;95037.00;5113366;28;20949;-70
2023/10/23 22:04:37;;;;;;;34.10;15.63;;;;;;;15.40;77.68;95039.31;5111957;28;20181;-70
2023/10/23 22:07:03;;;;;;;41.67;16.57;;;;;;;15.21;77.41;95009.53;5112678;28;20177;-69
2023/10/23 22:09:28;;;;;;;39.13;16.77;;;;;;;15.32;77.71;95031.72;5112720;28;20177;-70
2023/10/23 22:11:54;;;;;;;44.90;16.40;;;;;;;15.33;77.81;95042.13;5112403;28;20220;-70
2023/10/23 22:14:20;;;;;;;38.85;15.50;;;;;;;15.32;78.20;95042.34;5112409;28;20640;-70
2023/10/23 22:16:46;;;;;;;42.90;14.45;;;;;;;15.29;78.00;95042.84;5112425;28;20250;-71
2023/10/23 22:19:11;;;;;;;43.45;14.55;;;;;;;15.34;77.91;95048.22;5112394;28;20205;-70
2023/10/23 22:21:37;;;;;;;34.08;12.15;;;;;;;15.31;78.01;95051.34;5112297;28;20177;-71
2023/10/23 22:24:03;;;;;;;27.45;10.93;;;;;;;15.21;78.06;95036.06;5110979;28;20204;-71
2023/10/23 22:26:31;;;;;;;28.00;10.35;;;;;;;15.24;78.27;95051.47;5112108;28;20599;-70
2023/10/23 22:28:57;;;;;;;22.17;10.30;;;;;;;15.20;78.38;95050.34;5112635;28;20215;-70
2023/10/23 22:31:22;;;;;;;35.33;9.75;;;;;;;15.04;78.47;95032.53;5112225;28;20271;-71
2023/10/23 22:33:48;;;;;;;24.33;9.25;;;;;;;15.08;78.66;95046.91;5112622;28;20616;-70
2023/10/23 22:36:13;;;;;;;29.13;9.40;;;;;;;15.07;78.70;95046.09;5112601;28;20264;-71
2023/10/23 22:38:39;;;;;;;43.87;10.10;;;;;;;15.04;79.19;95035.97;5112488;28;20181;-70
2023/10/23 22:41:04;;;;;;;26.73;9.43;;;;;;;15.01;79.19;95035.63;5112392;28;20177;-71
2023/10/23 22:43:30;;;;;;;29.38;10.35;;;;;;;15.00;79.12;95039.31;5112719;28;20608;-70
2023/10/23 22:45:55;;;;;;;29.07;9.37;;;;;;;14.96;79.24;95043.50;5112572;27;20234;-70
2023/10/23 22:48:21;;;;;;;25.43;9.30;;;;;;;14.89;79.51;95048.09;5112468;28;20184;-70
2023/10/23 22:50:46;;;;;;;24.33;8.13;;;;;;;14.83;79.60;95041.06;5112292;28;20644;-70
2023/10/23 22:53:13;;;;;;;22.80;7.43;;;;;;;14.81;79.77;95045.78;5112037;28;20197;-70
2023/10/23 22:55:39;;;;;;;21.37;8.30;;;;;;;14.78;79.65;95049.72;5112338;27;20177;-70
2023/10/23 22:58:08;;;;;;;21.50;7.60;;;;;;;14.79;79.92;95046.00;5111981;28;20256;-70
2023/10/23 23:00:33;;;;;;;20.35;7.25;;;;;;;14.75;79.82;95046.72;5112062;28;20206;-70
2023/10/23 23:02:59;;;;;;;24.23;8.67;;;;;;;14.67;79.70;95038.09;5112283;28;20173;-70
2023/10/23 23:05:25;;;;;;;21.65;7.05;;;;;;;14.69;79.81;95049.28;5112013;27;20721;-69
2023/10/23 23:07:54;;;;;;;22.73;7.33;;;;;;;14.67;80.25;95048.69;5112128;28;20226;-69
2023/10/23 23:10:20;;;;;;;25.90;7.43;;;;;;;14.66;80.29;95048.91;5112111;28;20169;-70
2023/10/23 23:12:45;;;;;;;17.60;7.27;;;;;;;14.62;79.90;95047.75;5111630;28;20259;-71
2023/10/23 23:15:11;;;;;;;20.67;7.83;;;;;;;14.60;79.98;95034.75;5111963;28;20602;-70
2023/10/23 23:17:39;;;;;;;23.27;7.90;;;;;;;14.58;79.92;95041.31;5111873;28;20169;-70
2023/10/23 23:20:06;;;;;;;20.67;7.37;;;;;;;14.54;80.23;95040.97;5107478;28;20640;-70
2023/10/23 23:22:32;;;;;;;17.67;6.53;;;;;;;14.51;80.30;95035.34;5091259;28;20174;-70
2023/10/23 23:24:57;;;;;;;19.50;6.97;;;;;;;14.43;80.30;95028.53;5091412;28;20188;-70
2023/10/23 23:27:23;;;;;;;23.67;8.50;;;;;;;14.47;80.14;95036.81;5091289;28;20617;-70
2023/10/23 23:29:50;;;;;;;21.13;8.00;;;;;;;14.33;80.13;95012.38;5091363;28;20177;-70
2023/10/23 23:32:16;;;;;;;22.53;7.93;;;;;;;14.42;80.03;95024.28;5090984;28;20595;-70
2023/10/23 23:34:42;;;;;;;18.50;8.77;;;;;;;14.39;79.86;95026.56;5090168;28;20197;-70
2023/10/23 23:37:07;;;;;;;23.00;8.47;;;;;;;14.36;79.68;95025.16;5089797;28;20201;-70
2023/10/23 23:39:33;;;;;;;25.17;7.77;;;;;;;14.44;79.83;95037.28;5102448;28;20183;-71
2023/10/23 23:41:59;;;;;;;22.80;7.83;;;;;;;14.40;79.55;95036.13;5098041;28;20256;-71
2023/10/23 23:44:25;;;;;;;25.20;7.57;;;;;;;14.32;79.71;95034.59;5090905;28;20641;-70
2023/10/23 23:46:51;;;;;;;22.67;7.07;;;;;;;14.30;79.91;95040.13;5091252;28;20181;-70
2023/10/23 23:49:16;;;;;;;23.60;8.20;;;;;;;14.26;80.16;95040.81;5091110;28;20248;-70
2023/10/23 23:51:42;;;;;;;13.67;6.57;;;;;;;14.22;80.18;95043.09;5090729;28;20264;-70
2023/10/23 23:54:07;;;;;;;15.13;6.43;;;;;;;14.15;80.13;95039.75;5090827;28;20170;-70
2023/10/23 23:56:33;;;;;;;24.43;6.87;;;;;;;14.09;80.32;95031.94;5090792;28;20185;-70
2023/10/23 23:58:58;;;;;;;17.70;6.00;;;;;;;14.06;80.74;95041.13;5090721;28;20177;-70
